Time;durP1;ratioP1;P1;durP2;ratioP2;P2;SDS_P1;SDS_P2;PMS_P1;PMS_P2;Temp;Humidity;BMP_temperature;BMP_pressure;BME280_temperature;BME280_humidity;BME280_pressure;Samples;Min_cycle;Max_cycle;Signal;HPM_P1;HPM_P2
2022/08/01 00:04:10;;;;;;;18.05;13.60;;;;;;;22.99;68.02;99570.84;10500677;28;20134;-67
2022/08/01 00:09:11;;;;;;;21.42;14.63;;;;;;;22.98;68.62;99571.13;10501492;28;20143;-67
2022/08/01 00:14:12;;;;;;;20.73;14.65;;;;;;;22.58;68.50;99513.03;10501124;28;20052;-66
2022/08/01 00:19:13;;;;;;;16.80;14.57;;;;;;;23.06;68.71;99600.38;10483166;28;20048;-67
2022/08/01 00:24:13;;;;;;;15.77;13.98;;;;;;;23.06;68.61;99603.06;10500953;28;20062;-67
2022/08/01 00:29:14;;;;;;;16.88;14.38;;;;;;;22.88;68.89;99576.47;10498987;28;20132;-66
2022/08/01 00:34:15;;;;;;;18.55;15.10;;;;;;;23.03;68.75;99617.16;10500938;28;20050;-66
2022/08/01 00:39:16;;;;;;;25.95;14.93;;;;;;;22.65;69.06;99556.13;10500216;28;20068;-66
2022/08/01 00:44:17;;;;;;;23.25;15.02;;;;;;;22.99;69.28;99616.06;10499462;28;20040;-67
2022/08/01 00:49:18;;;;;;;28.83;15.00;;;;;;;22.50;69.42;99538.75;10499784;28;20095;-67
2022/08/01 00:54:19;;;;;;;19.35;14.05;;;;;;;22.90;69.57;99606.81;10499577;28;20078;-67
2022/08/01 00:59:22;;;;;;;17.92;13.60;;;;;;;22.75;70.43;99607.59;10500416;28;20520;-67
2022/08/01 01:04:22;;;;;;;29.40;13.47;;;;;;;22.67;70.23;99598.06;10498648;28;20040;-67
2022/08/01 01:10:14;;;;;;;24.15;14.10;;;;;;;22.85;72.05;99621.13;10498869;28;20040;-67
2022/08/01 01:15:18;;;;;;;25.00;14.43;;;;;;;22.77;70.17;99608.94;10465377;28;20056;-67
2022/08/01 01:20:24;;;;;;;41.30;14.80;;;;;;;22.78;71.78;99612.47;10498507;28;20082;-67
2022/08/01 01:25:36;;;;;;;22.77;13.65;;;;;;;22.67;72.79;99618.91;10498378;28;20546;-67
2022/08/01 01:30:41;;;;;;;19.15;12.82;;;;;;;22.26;72.98;99573.56;10498807;28;20040;-66
2022/08/01 01:35:51;;;;;;;36.60;13.35;;;;;;;22.51;75.11;99615.34;10497310;28;20119;-66
2022/08/01 01:40:55;;;;;;;18.20;12.57;;;;;;;22.46;73.83;99618.03;10497756;28;20037;-66
2022/08/01 01:45:56;;;;;;;22.70;13.33;;;;;;;22.29;74.06;99585.78;10497352;28;20139;-67
2022/08/01 01:50:59;;;;;;;34.35;13.80;;;;;;;22.37;74.60;99598.78;10494246;28;20306;-67
2022/08/01 01:56:01;;;;;;;35.90;14.43;;;;;;;22.56;76.42;99628.91;10455837;28;20041;-67
2022/08/01 02:01:03;;;;;;;21.52;12.48;;;;;;;22.37;75.43;99601.47;10456265;28;20033;-67
2022/08/01 02:06:05;;;;;;;17.63;12.60;;;;;;;21.46;75.69;99490.91;10455464;28;20041;-66
2022/08/01 02:11:19;;;;;;;25.88;13.90;;;;;;;22.15;76.47;99628.66;10455479;28;20052;-66
2022/08/01 02:16:24;;;;;;;16.80;13.40;;;;;;;21.91;78.84;99638.25;10456001;28;20060;-67
2022/08/01 02:21:33;;;;;;;18.60;14.15;;;;;;;21.94;79.62;99633.13;10453924;28;20041;-67
2022/08/01 02:26:41;;;;;;;18.30;13.15;;;;;;;21.45;79.91;99543.31;10453382;28;20090;-66
2022/08/01 02:31:46;;;;;;;21.45;14.00;;;;;;;22.07;79.67;99638.06;10454851;28;20400;-67
2022/08/01 02:36:49;;;;;;;23.70;14.18;;;;;;;22.01;78.33;99595.84;10454421;28;20481;-66
2022/08/01 02:41:56;;;;;;;26.73;14.82;;;;;;;22.28;79.55;99622.00;10454444;28;20043;-67
2022/08/01 02:47:02;;;;;;;26.73;14.82;;;;;;;22.68;80.72;99639.53;10454257;28;20045;-67
2022/08/01 02:52:08;;;;;;;26.35;15.63;;;;;;;23.09;83.10;99615.28;10454770;28;20114;-67
2022/08/01 02:57:10;;;;;;;18.67;13.48;;;;;;;23.78;80.30;99643.81;10463331;28;20045;-67
2022/08/01 03:02:13;;;;;;;18.42;12.07;;;;;;;24.24;78.32;99624.75;10463158;28;20044;-67
2022/08/01 03:07:15;;;;;;;25.43;12.77;;;;;;;24.69;76.41;99583.06;10461250;28;20084;-67
2022/08/01 03:12:20;;;;;;;43.47;14.02;;;;;;;25.97;74.44;99631.09;10463463;28;20040;-67
2022/08/01 03:17:24;;;;;;;14.85;11.60;;;;;;;27.39;69.41;99648.69;10503777;28;20384;-67
2022/08/01 03:22:27;;;;;;;20.42;11.55;;;;;;;28.48;66.17;99650.09;10502696;28;20090;-68
2022/08/01 03:27:29;;;;;;;15.57;12.52;;;;;;;29.04;63.99;99624.31;10502964;28;20043;-68
2022/08/01 03:32:31;;;;;;;21.25;12.13;;;;;;;29.69;62.90;99655.09;10502285;28;20041;-69
2022/08/01 03:37:41;;;;;;;18.85;12.93;;;;;;;29.93;61.79;99654.75;10501921;28;20044;-67
2022/08/01 03:42:47;;;;;;;26.75;13.10;;;;;;;30.37;60.98;99664.03;10501894;28;20040;-68
2022/08/01 03:47:52;;;;;;;19.65;12.70;;;;;;;30.63;59.38;99609.25;10502645;28;20511;-68
2022/08/01 03:52:57;;;;;;;40.10;14.07;;;;;;;31.09;57.74;99574.97;10527334;28;20515;-68
2022/08/01 03:57:59;;;;;;;22.60;12.52;;;;;;;31.53;56.85;99606.75;10495555;28;20052;-68
2022/08/01 04:03:00;;;;;;;;;;;;;;;32.78;54.29;99670.81;10489669;28;20443;-68
2022/08/01 04:08:02;;;;;;;18.73;12.20;;;;;;;32.13;56.41;99659.09;10536341;28;20439;-69
2022/08/01 04:13:03;;;;;;;22.60;13.25;;;;;;;32.01;56.33;99649.63;10521389;28;20056;-70
2022/08/01 04:18:04;;;;;;;20.10;14.20;;;;;;;32.16;55.06;99655.69;10461295;28;20500;-70
2022/08/01 04:23:05;;;;;;;15.52;13.38;;;;;;;32.39;54.59;99642.50;10459451;28;20052;-69
2022/08/01 04:28:10;;;;;;;19.67;13.37;;;;;;;32.79;53.43;99667.72;10483949;28;20053;-66
2022/08/01 04:33:16;;;;;;;15.75;13.27;;;;;;;32.90;52.33;99646.13;10497030;28;20045;-65
2022/08/01 04:38:21;;;;;;;19.25;13.77;;;;;;;32.96;52.11;99653.03;10492688;28;20045;-66
2022/08/01 04:43:22;;;;;;;18.42;12.60;;;;;;;32.90;52.21;99652.44;10462235;28;20075;-68
2022/08/01 04:48:24;;;;;;;14.03;12.63;;;;;;;32.78;52.00;99651.53;10457496;28;20040;-67
2022/08/01 04:53:26;;;;;;;14.10;10.98;;;;;;;32.47;50.32;99583.97;10457525;28;20119;-67
2022/08/01 04:58:27;;;;;;;14.93;10.50;;;;;;;32.82;48.95;99638.72;10457847;28;20071;-67
2022/08/01 05:03:27;;;;;;;16.02;10.30;;;;;;;32.34;49.73;99560.25;10458459;28;20099;-67
2022/08/01 05:08:29;;;;;;;14.07;9.93;;;;;;;32.56;49.29;99636.16;10457078;28;20041;-67
2022/08/01 05:13:30;;;;;;;12.23;9.40;;;;;;;32.33;49.76;99641.91;10469548;28;20107;-67
2022/08/01 05:18:31;;;;;;;17.83;8.73;;;;;;;31.91;51.00;99641.72;10497464;28;20055;-68
2022/08/01 05:23:32;;;;;;;11.40;9.23;;;;;;;31.16;51.33;99556.88;10498702;28;20037;-67
2022/08/01 05:28:33;;;;;;;11.23;8.15;;;;;;;31.46;50.10;99642.13;10498237;28;20044;-67
2022/08/01 05:33:34;;;;;;;10.52;8.55;;;;;;;31.04;51.52;99639.03;10497423;28;20051;-67
2022/08/01 05:38:34;;;;;;;12.55;8.05;;;;;;;30.58;51.08;99569.13;10497384;28;20040;-67
2022/08/01 05:43:35;;;;;;;10.02;7.90;;;;;;;30.85;50.17;99617.41;10498522;28;20131;-67
2022/08/01 05:48:36;;;;;;;16.15;7.00;;;;;;;31.06;48.99;99630.50;10497412;28;20047;-69
2022/08/01 05:53:37;;;;;;;18.08;5.90;;;;;;;30.71;47.93;99553.66;10497340;28;20452;-68
2022/08/01 05:58:38;;;;;;;13.15;6.30;;;;;;;31.28;47.23;99624.03;10497043;28;20075;-68
2022/08/01 06:03:38;;;;;;;16.63;6.90;;;;;;;30.73;48.11;99523.19;10497091;28;20040;-69
2022/08/01 06:08:40;;;;;;;8.43;5.53;;;;;;;30.61;46.46;99478.03;10497369;28;20051;-68
2022/08/01 06:13:41;;;;;;;15.10;5.97;;;;;;;31.56;45.93;99616.25;10482136;28;20412;-71
2022/08/01 06:18:41;;;;;;;10.05;5.22;;;;;;;31.73;45.35;99626.41;10454520;28;20132;-68
2022/08/01 06:23:42;;;;;;;15.32;5.78;;;;;;;31.27;45.20;99523.63;10454966;28;20041;-68
2022/08/01 06:28:43;;;;;;;12.60;5.13;;;;;;;31.96;43.23;99602.31;10454026;28;20432;-71
2022/08/01 06:33:44;;;;;;;16.23;5.28;;;;;;;32.03;42.42;99584.16;10454058;28;20071;-68
2022/08/01 06:38:44;;;;;;;10.98;5.25;;;;;;;32.04;42.47;99541.84;10454522;28;20036;-71
2022/08/01 06:43:45;;;;;;;10.45;5.75;;;;;;;32.38;41.88;99602.44;10453830;28;20049;-69
2022/08/01 06:48:46;;;;;;;8.38;5.35;;;;;;;32.24;42.29;99586.97;10454568;28;20037;-68
2022/08/01 06:53:47;;;;;;;11.45;6.25;;;;;;;32.09;42.26;99535.34;10453634;28;20127;-71
2022/08/01 06:58:49;;;;;;;18.70;6.35;;;;;;;32.62;41.96;99602.63;10454778;28;20546;-68
2022/08/01 07:03:51;;;;;;;13.38;6.00;;;;;;;32.80;41.79;99586.03;10454031;28;20072;-69
2022/08/01 07:08:52;;;;;;;11.53;5.50;;;;;;;32.81;41.38;99555.41;10454338;28;20037;-69
2022/08/01 07:13:53;;;;;;;13.98;5.70;;;;;;;33.10;40.01;99579.31;10467254;28;20059;-69
2022/08/01 07:18:54;;;;;;;9.90;5.72;;;;;;;33.17;39.95;99582.31;10494661;28;20055;-71
2022/08/01 07:23:55;;;;;;;18.42;6.85;;;;;;;33.04;39.30;99561.41;10495488;28;20051;-68
2022/08/01 07:28:56;;;;;;;17.40;5.90;;;;;;;33.36;40.06;99564.53;10494809;28;20519;-69
2022/08/01 07:33:56;;;;;;;19.90;5.00;;;;;;;33.61;38.63;99555.19;10494976;28;20049;-70
2022/08/01 07:38:57;;;;;;;11.27;5.82;;;;;;;33.73;39.22;99551.66;10496427;28;20497;-68
2022/08/01 07:43:58;;;;;;;8.27;5.10;;;;;;;33.62;37.88;99506.41;10501687;28;20056;-68
2022/08/01 07:48:59;;;;;;;27.77;5.95;;;;;;;33.38;38.15;99452.09;10501903;28;20404;-68
2022/08/01 07:54:00;;;;;;;10.52;5.20;;;;;;;34.13;38.43;99534.47;10503554;28;20040;-69
2022/08/01 07:59:00;;;;;;;13.80;5.28;;;;;;;34.03;37.92;99510.94;10501997;28;20040;-71
2022/08/01 08:04:01;;;;;;;29.20;6.28;;;;;;;34.28;37.59;99522.75;10501005;28;20067;-73
2022/08/01 08:09:02;;;;;;;13.88;5.95;;;;;;;34.37;37.66;99517.09;10500869;28;20041;-68
2022/08/01 08:14:03;;;;;;;15.88;5.95;;;;;;;33.96;37.11;99444.56;10485962;28;20049;-68
2022/08/01 08:19:04;;;;;;;14.07;5.55;;;;;;;34.25;37.44;99475.75;10459781;28;20041;-69
2022/08/01 08:24:21;;;;;;;11.18;5.80;;;;;;;34.43;37.66;99479.88;10458325;28;20139;-66
2022/08/01 08:29:23;;;;;;;18.25;5.72;;;;;;;34.51;37.15;99489.94;10459337;28;20033;-67
2022/08/01 08:34:25;;;;;;;15.40;5.70;;;;;;;34.78;36.88;99495.84;10458654;28;20047;-68
2022/08/01 08:39:29;;;;;;;15.38;5.72;;;;;;;34.41;36.01;99426.22;10458848;28;20412;-67
2022/08/01 08:44:30;;;;;;;11.27;6.10;;;;;;;34.38;36.65;99416.69;10459402;28;20076;-69
2022/08/01 08:49:32;;;;;;;15.18;5.60;;;;;;;34.76;35.22;99465.06;10457929;28;20068;-68
2022/08/01 08:54:33;;;;;;;;;;;;;;;35.33;33.96;99487.88;10458593;28;20040;-69
2022/08/01 08:59:34;;;;;;;16.03;4.70;;;;;;;35.40;32.79;99488.88;10458239;28;19924;-70
2022/08/01 09:04:36;;;;;;;21.05;4.90;;;;;;;35.52;32.29;99485.25;10458640;28;20488;-67
2022/08/01 09:09:37;;;;;;;;;;;;;;;35.82;29.22;99479.28;10458187;28;20033;-68
2022/08/01 09:14:45;;;;;;;12.87;4.30;;;;;;;35.81;29.99;99484.00;10457340;28;19920;-69
2022/08/01 09:19:51;;;;;;;13.05;4.60;;;;;;;35.30;31.33;99350.56;10457189;28;20068;-67
2022/08/01 09:25:08;;;;;;;7.15;3.72;;;;;;;35.88;29.82;99464.03;10457314;28;20123;-71
2022/08/01 09:30:14;;;;;;;15.13;4.43;;;;;;;35.49;29.67;99391.25;10457023;28;20085;-67
2022/08/01 09:35:36;;;;;;;15.43;4.07;;;;;;;36.17;29.28;99472.97;10439087;28;20071;-69
2022/08/01 09:40:57;;;;;;;16.58;3.95;;;;;;;36.19;28.80;99463.16;10457110;28;20092;-67
2022/08/01 09:46:00;;;;;;;13.53;4.40;;;;;;;36.22;29.25;99451.38;10456215;28;20092;-67
2022/08/01 09:51:00;;;;;;;8.45;3.40;;;;;;;36.24;28.40;99454.59;10437891;28;20041;-67
2022/08/01 09:56:12;;;;;;;10.20;3.80;;;;;;;35.99;28.62;99384.94;10455150;28;20482;-67
2022/08/01 10:01:13;;;;;;;14.55;3.63;;;;;;;36.07;27.58;99397.75;10455618;28;20076;-70
2022/08/01 10:06:21;;;;;;;15.83;3.73;;;;;;;36.28;25.93;99451.91;10455565;28;20132;-68
2022/08/01 10:11:23;;;;;;;6.38;3.03;;;;;;;36.30;26.07;99442.09;10455301;28;20287;-67
2022/08/01 10:16:26;;;;;;;14.70;3.60;;;;;;;36.43;25.79;99433.63;10455875;28;20140;-70
2022/08/01 10:21:28;;;;;;;14.60;3.55;;;;;;;36.05;25.26;99385.47;10455345;28;20135;-67
2022/08/01 10:26:33;;;;;;;12.10;3.30;;;;;;;36.52;24.69;99417.66;10454897;28;20032;-70
2022/08/01 10:31:34;;;;;;;8.15;3.10;;;;;;;36.26;24.72;99357.47;10454282;28;20143;-69
2022/08/01 10:36:38;;;;;;;36.67;4.10;;;;;;;36.16;25.07;99345.00;10454171;28;20109;-67
2022/08/01 10:41:40;;;;;;;10.05;3.33;;;;;;;36.81;24.68;99426.53;10454127;28;20045;-67
2022/08/01 10:46:46;;;;;;;19.05;3.72;;;;;;;36.74;24.85;99427.97;10454782;28;20048;-69
2022/08/01 10:51:48;;;;;;;12.45;3.38;;;;;;;36.68;24.69;99412.84;10452964;28;20048;-67
2022/08/01 10:56:50;;;;;;;5.63;2.85;;;;;;;36.25;24.46;99362.19;10453666;28;20586;-69
2022/08/01 11:01:58;;;;;;;11.52;3.15;;;;;;;36.23;24.13;99334.09;10453693;28;20063;-70
2022/08/01 11:07:16;;;;;;;12.55;3.33;;;;;;;36.73;24.68;99401.47;10454063;28;20048;-69
2022/08/01 11:12:18;;;;;;;13.10;3.53;;;;;;;36.82;24.19;99411.50;10453774;28;20048;-67
2022/08/01 11:17:47;;;;;;;11.98;2.97;;;;;;;36.99;23.10;99405.50;10530497;28;20032;-68
2022/08/01 11:23:00;;;;;;;8.07;2.80;;;;;;;36.93;22.96;99395.91;10516322;28;20051;-68
2022/08/01 11:28:16;;;;;;;15.50;3.00;;;;;;;36.95;23.12;99393.56;10542742;28;20075;-69
2022/08/01 11:33:38;;;;;;;8.77;3.30;;;;;;;36.75;23.89;99399.13;10540149;28;20119;-70
2022/08/01 11:38:47;;;;;;;7.07;3.00;;;;;;;36.79;23.32;99391.69;10536156;28;20033;-69
2022/08/01 11:44:14;;;;;;;8.02;3.08;;;;;;;36.63;22.94;99385.47;10536981;28;20036;-70
2022/08/01 11:49:25;;;;;;;6.18;2.92;;;;;;;36.79;22.28;99386.16;10537973;28;20405;-71
2022/08/01 11:54:31;;;;;;;6.77;2.97;;;;;;;36.79;22.48;99383.38;10535953;28;20542;-67
2022/08/01 11:59:47;;;;;;;8.73;2.80;;;;;;;36.44;21.76;99330.13;10538252;28;20115;-69
2022/08/01 12:04:52;;;;;;;6.72;3.00;;;;;;;36.18;22.93;99312.28;10536650;28;20081;-69
2022/08/01 12:10:20;;;;;;;6.25;2.63;;;;;;;36.67;21.66;99375.25;10538102;28;20028;-71
2022/08/01 12:15:24;;;;;;;8.57;3.10;;;;;;;36.53;22.11;99386.88;10508761;28;20055;-71
2022/08/01 12:20:28;;;;;;;7.88;2.92;;;;;;;36.43;22.46;99356.19;10494703;28;20040;-69
2022/08/01 12:25:29;;;;;;;6.43;2.78;;;;;;;36.61;22.06;99362.09;10486403;28;20525;-67
2022/08/01 12:30:31;;;;;;;9.13;2.70;;;;;;;36.55;22.14;99356.06;10493044;28;20470;-68
2022/08/01 12:35:32;;;;;;;;;;;;;;;36.86;22.11;99357.03;10499916;28;20068;-67
2022/08/01 12:40:35;;;;;;;9.17;3.03;;;;;;;36.72;22.71;99349.28;10495270;28;20384;-68
2022/08/01 12:45:39;;;;;;;5.93;2.90;;;;;;;36.24;22.50;99280.41;10499388;28;20040;-69
2022/08/01 12:50:45;;;;;;;7.50;2.55;;;;;;;36.68;22.38;99351.97;10497215;28;20040;-68
2022/08/01 12:55:47;;;;;;;10.85;2.75;;;;;;;36.66;21.87;99343.22;10497206;28;20048;-70
2022/08/01 13:01:02;;;;;;;8.15;2.63;;;;;;;36.47;22.27;99341.28;10494799;28;20408;-69
2022/08/01 13:06:11;;;;;;;7.45;3.10;;;;;;;36.44;22.33;99338.44;10473026;28;20522;-70
2022/08/01 13:11:13;;;;;;;10.48;2.60;;;;;;;36.46;22.18;99355.47;10492633;28;20036;-70
2022/08/01 13:16:18;;;;;;;6.47;2.50;;;;;;;35.83;22.55;99260.59;10504859;28;20055;-67
2022/08/01 13:21:24;;;;;;;4.85;2.42;;;;;;;36.34;22.38;99348.91;10518112;28;20111;-71
2022/08/01 13:26:48;;;;;;;12.90;2.47;;;;;;;36.43;22.76;99345.13;10505746;28;20184;-67
2022/08/01 13:31:50;;;;;;;8.73;3.03;;;;;;;36.27;22.92;99323.91;10480982;28;20079;-67
2022/08/01 13:36:50;;;;;;;5.43;2.70;;;;;;;36.26;22.66;99327.84;10482960;28;20071;-69
2022/08/01 13:41:52;;;;;;;11.10;3.03;;;;;;;36.36;23.01;99339.47;10455886;28;20037;-67
2022/08/01 13:46:53;;;;;;;12.20;2.67;;;;;;;36.18;23.01;99333.59;10456442;28;20120;-67
2022/08/01 13:51:54;;;;;;;4.63;2.58;;;;;;;36.18;23.22;99345.44;10456259;28;20151;-69
2022/08/01 13:56:55;;;;;;;10.33;2.97;;;;;;;35.43;23.05;99255.41;10455931;28;20128;-71
2022/08/01 14:01:56;;;;;;;5.45;2.95;;;;;;;35.85;22.51;99343.97;10454841;28;20056;-67
2022/08/01 14:06:57;;;;;;;8.32;2.70;;;;;;;35.73;22.89;99341.31;10491255;28;20051;-71
2022/08/01 14:11:58;;;;;;;15.20;3.10;;;;;;;35.67;22.65;99351.84;10496418;28;20136;-71
2022/08/01 14:16:59;;;;;;;7.22;2.80;;;;;;;35.42;22.66;99331.94;10530721;28;20452;-69
2022/08/01 14:22:01;;;;;;;9.55;3.33;;;;;;;35.31;22.82;99332.84;10504873;28;20072;-68
2022/08/01 14:27:03;;;;;;;11.05;2.90;;;;;;;35.36;22.75;99344.41;10507547;28;20056;-68
2022/08/01 14:32:04;;;;;;;12.07;2.97;;;;;;;35.31;22.81;99344.69;10496133;28;20127;-69
2022/08/01 14:37:05;;;;;;;23.98;3.78;;;;;;;34.82;22.74;99276.03;10532492;28;20130;-68
2022/08/01 14:42:05;;;;;;;20.27;3.30;;;;;;;35.06;22.93;99337.75;10537110;28;20052;-66
2022/08/01 14:47:06;;;;;;;23.15;3.53;;;;;;;34.92;22.89;99338.97;10537794;28;20043;-68
2022/08/01 14:52:07;;;;;;;18.80;2.83;;;;;;;34.45;23.38;99278.22;10537673;28;20484;-68
2022/08/01 14:57:08;;;;;;;31.27;3.97;;;;;;;34.65;23.40;99337.09;10537749;28;20093;-67
2022/08/01 15:02:11;;;;;;;6.57;2.67;;;;;;;34.44;23.41;99348.31;10537491;28;20032;-68
2022/08/01 15:07:11;;;;;;;;;;;;;;;34.39;22.86;99360.38;10537741;28;20522;-68
2022/08/01 15:12:13;;;;;;;22.23;3.65;;;;;;;34.06;23.69;99360.63;10537581;28;19916;-67
2022/08/01 15:17:18;;;;;;;14.55;2.67;;;;;;;33.38;23.96;99287.72;10537916;28;20060;-69
2022/08/01 15:22:23;;;;;;;37.70;4.68;;;;;;;33.24;24.40;99286.50;10536405;28;20048;-67
2022/08/01 15:27:25;;;;;;;22.92;3.40;;;;;;;33.70;24.60;99387.09;10535485;28;20075;-68
2022/08/01 15:32:26;;;;;;;29.70;4.50;;;;;;;33.56;25.08;99390.19;10536213;28;20046;-67
2022/08/01 15:37:27;;;;;;;15.43;4.00;;;;;;;33.42;24.86;99401.53;10530915;28;20131;-67
2022/08/01 15:42:28;;;;;;;24.40;3.83;;;;;;;33.14;24.80;99393.13;10503014;28;20040;-67
2022/08/01 15:47:29;;;;;;;19.05;3.35;;;;;;;32.90;24.68;99371.84;10493839;28;20094;-67
2022/08/01 15:52:30;;;;;;;17.25;3.03;;;;;;;33.03;24.72;99410.44;10528941;28;20036;-67
2022/08/01 15:57:31;;;;;;;35.72;3.83;;;;;;;32.74;25.07;99407.44;10536167;28;20052;-67
2022/08/01 16:02:32;;;;;;;14.80;2.83;;;;;;;32.69;25.63;99426.91;10523894;28;20066;-67
2022/08/01 16:07:33;;;;;;;18.58;3.28;;;;;;;32.45;25.55;99413.06;10543570;28;20385;-67
2022/08/01 16:12:33;;;;;;;12.77;3.20;;;;;;;32.42;25.80;99442.00;10538422;28;20391;-68
2022/08/01 16:17:34;;;;;;;12.45;3.22;;;;;;;32.28;25.87;99453.28;10483426;28;20048;-67
2022/08/01 16:22:35;;;;;;;14.68;2.80;;;;;;;32.13;26.90;99461.28;10501821;28;20060;-68
2022/08/01 16:27:36;;;;;;;13.50;3.13;;;;;;;31.99;26.49;99467.03;10501190;28;20036;-67
2022/08/01 16:32:37;;;;;;;13.50;3.10;;;;;;;31.70;26.91;99452.13;10500773;28;20496;-68
2022/08/01 16:37:38;;;;;;;20.50;3.33;;;;;;;31.76;27.14;99482.97;10500533;28;20603;-69
2022/08/01 16:42:38;;;;;;;8.15;2.42;;;;;;;31.22;28.15;99416.81;10499619;28;20185;-67
2022/08/01 16:47:39;;;;;;;15.10;3.30;;;;;;;31.47;28.46;99483.72;10482380;28;20040;-67
2022/08/01 16:52:40;;;;;;;12.07;2.45;;;;;;;31.21;28.57;99470.88;10500020;28;20045;-70
2022/08/01 16:57:41;;;;;;;12.10;2.58;;;;;;;30.84;29.26;99448.53;10500338;28;20128;-67
2022/08/01 17:02:42;;;;;;;11.32;3.15;;;;;;;30.99;29.67;99495.75;10499470;28;20435;-67
2022/08/01 17:07:43;;;;;;;12.68;2.85;;;;;;;30.96;30.18;99523.81;10487791;28;20374;-68
2022/08/01 17:12:43;;;;;;;14.65;2.88;;;;;;;30.41;30.35;99460.28;10496136;28;20479;-69
2022/08/01 17:17:44;;;;;;;12.88;2.90;;;;;;;30.75;30.93;99537.34;10488399;28;20044;-67
2022/08/01 17:22:46;;;;;;;11.65;2.70;;;;;;;30.61;31.33;99548.50;10497805;28;20131;-67
2022/08/01 17:27:50;;;;;;;19.80;2.85;;;;;;;30.51;31.48;99552.31;10435328;28;20095;-70
2022/08/01 17:32:51;;;;;;;10.02;3.35;;;;;;;30.40;31.60;99559.25;10455340;28;20041;-71
2022/08/01 17:37:52;;;;;;;17.45;2.97;;;;;;;30.30;32.21;99552.13;10456336;28;20441;-70
2022/08/01 17:42:52;;;;;;;11.70;3.67;;;;;;;30.11;32.78;99543.34;10455807;28;20128;-71
2022/08/01 17:47:53;;;;;;;15.77;3.33;;;;;;;29.50;33.14;99471.94;10447919;28;20036;-72
2022/08/01 17:52:54;;;;;;;10.52;3.53;;;;;;;29.82;33.68;99552.91;10448750;28;20064;-68
2022/08/01 17:57:55;;;;;;;23.50;4.40;;;;;;;29.49;33.85;99512.13;10450311;28;20479;-69
2022/08/01 18:02:56;;;;;;;14.48;5.88;;;;;;;29.32;34.20;99503.88;10446383;28;20049;-69
2022/08/01 18:07:58;;;;;;;19.42;7.22;;;;;;;29.55;34.60;99560.13;10451191;28;20051;-70
2022/08/01 18:13:00;;;;;;;25.65;7.60;;;;;;;29.07;34.35;99510.75;10462232;28;20060;-71
2022/08/01 18:18:02;;;;;;;12.93;6.83;;;;;;;29.33;34.85;99582.06;10533350;28;20388;-72
2022/08/01 18:23:02;;;;;;;11.07;4.30;;;;;;;29.24;35.12;99567.53;10515617;28;20055;-71
2022/08/01 18:28:04;;;;;;;10.10;3.42;;;;;;;29.01;35.62;99556.53;10531304;28;20048;-71
2022/08/01 18:33:05;;;;;;;12.27;2.92;;;;;;;29.05;35.74;99571.25;10532186;28;20085;-71
2022/08/01 18:38:06;;;;;;;10.98;2.90;;;;;;;28.95;35.87;99557.78;10532731;28;20082;-69
2022/08/01 18:43:06;;;;;;;15.60;2.95;;;;;;;28.86;36.39;99578.75;10523121;28;20036;-70
2022/08/01 18:48:07;;;;;;;6.05;2.70;;;;;;;28.60;36.91;99545.75;10531095;28;20350;-70
2022/08/01 18:53:08;;;;;;;8.23;2.60;;;;;;;28.50;37.56;99549.50;10529219;28;20077;-70
2022/08/01 18:58:09;;;;;;;17.70;3.25;;;;;;;28.05;38.23;99502.09;10531010;28;20039;-70
2022/08/01 19:03:10;;;;;;;11.32;3.00;;;;;;;27.78;38.79;99492.78;10530797;28;20500;-70
2022/08/01 19:08:10;;;;;;;14.80;3.03;;;;;;;27.83;39.34;99524.66;10528132;28;20586;-70
2022/08/01 19:13:11;;;;;;;9.40;2.50;;;;;;;27.87;39.71;99531.09;10528889;28;20044;-71
2022/08/01 19:18:14;;;;;;;10.90;3.22;;;;;;;27.92;40.42;99558.31;10513607;28;20047;-70
2022/08/01 19:28:43;;;;;;;7.95;3.13;;;;;;;27.74;42.64;99560.78;10536199;28;20064;-70
2022/08/01 19:33:44;;;;;;;8.05;2.50;;;;;;;27.57;42.86;99538.72;10537524;28;20044;-71
2022/08/01 19:38:46;;;;;;;14.38;3.22;;;;;;;27.55;43.82;99549.13;10540084;28;20043;-70
2022/08/01 19:43:48;;;;;;;8.55;2.90;;;;;;;27.37;44.00;99534.41;10543153;28;20036;-70
2022/08/01 19:48:50;;;;;;;9.63;3.05;;;;;;;27.28;44.89;99541.66;10539825;28;20531;-71
2022/08/01 19:53:53;;;;;;;9.65;3.10;;;;;;;27.15;45.84;99548.72;10518957;28;20488;-68
2022/08/01 19:58:54;;;;;;;12.83;2.97;;;;;;;27.05;45.53;99560.56;10502116;28;20070;-69
2022/08/01 20:03:55;;;;;;;9.52;3.13;;;;;;;26.94;46.37;99563.72;10501710;28;20033;-69
2022/08/01 20:08:58;;;;;;;7.63;2.92;;;;;;;26.78;47.37;99563.97;10501803;28;20438;-71
2022/08/01 20:14:00;;;;;;;4.43;3.20;;;;;;;26.67;47.17;99548.06;10500341;28;20056;-70
2022/08/01 20:19:01;;;;;;;7.50;3.37;;;;;;;26.27;47.81;99491.09;10500897;28;20047;-71
2022/08/01 20:24:07;;;;;;;8.57;3.55;;;;;;;26.63;48.11;99569.63;10500431;28;20048;-70
2022/08/01 20:29:10;;;;;;;7.50;3.65;;;;;;;26.36;48.71;99543.78;10500487;28;20055;-74
2022/08/01 20:34:11;;;;;;;;;;;;;;;26.62;48.24;99570.72;10501340;28;20086;-70
2022/08/01 20:39:13;;;;;;;7.43;3.35;;;;;;;25.51;48.79;99425.59;10501064;28;19936;-71
2022/08/01 20:44:14;;;;;;;9.40;3.63;;;;;;;26.25;49.15;99555.91;10499758;28;20048;-70
2022/08/01 20:49:16;;;;;;;11.98;3.63;;;;;;;26.20;49.35;99545.06;10498419;28;20048;-70
2022/08/01 20:54:17;;;;;;;15.45;3.58;;;;;;;26.25;49.53;99568.72;10500002;28;20606;-70
2022/08/01 20:59:23;;;;;;;10.15;3.63;;;;;;;25.76;49.90;99505.28;10499568;28;20519;-70
2022/08/01 21:04:56;;;;;;;7.78;3.92;;;;;;;26.13;50.99;99578.09;10499638;28;20070;-71
2022/08/01 21:10:11;;;;;;;10.02;3.72;;;;;;;25.96;51.53;99575.00;10498893;28;20125;-71
2022/08/01 21:15:24;;;;;;;8.38;3.45;;;;;;;25.86;51.09;99589.53;10499810;28;20092;-71
2022/08/01 21:20:27;;;;;;;7.10;3.90;;;;;;;25.76;51.68;99586.91;10498841;28;20033;-71
2022/08/01 21:25:32;;;;;;;;;;;;;;;25.84;50.38;99597.19;10499528;28;20047;-71
2022/08/01 21:30:35;;;;;;;8.00;3.83;;;;;;;25.47;51.97;99603.22;10497851;28;19939;-71
2022/08/01 21:35:36;;;;;;;18.23;4.65;;;;;;;25.30;52.19;99595.44;10480371;28;20129;-71
2022/08/01 21:40:37;;;;;;;11.90;5.13;;;;;;;25.16;52.58;99602.63;10497722;28;20517;-71
2022/08/01 21:45:40;;;;;;;11.63;4.55;;;;;;;25.01;52.87;99588.03;10498016;28;20090;-71
2022/08/01 21:50:54;;;;;;;12.75;4.95;;;;;;;24.95;54.39;99596.47;10526361;28;20048;-71
2022/08/01 21:56:05;;;;;;;14.35;5.68;;;;;;;24.77;54.02;99587.09;10539517;28;20419;-71
2022/08/01 22:01:16;;;;;;;13.98;4.80;;;;;;;24.63;55.38;99584.16;10539569;28;20051;-71
2022/08/01 22:06:19;;;;;;;14.80;5.15;;;;;;;23.98;55.19;99507.34;10538482;28;20121;-71
2022/08/01 22:11:27;;;;;;;31.67;6.13;;;;;;;24.36;55.58;99590.78;10538279;28;20074;-71
2022/08/01 22:16:31;;;;;;;28.13;5.53;;;;;;;23.98;56.04;99545.31;10539192;28;20113;-71
2022/08/01 22:21:31;;;;;;;;;;;;;;;24.27;55.70;99584.28;10539190;28;20043;-71
2022/08/01 22:26:36;;;;;;;14.40;5.32;;;;;;;23.96;56.91;99577.31;10538784;28;19973;-71
2022/08/01 22:31:37;;;;;;;6.45;3.92;;;;;;;23.81;56.57;99561.91;10538094;28;20040;-71
2022/08/01 22:36:38;;;;;;;15.35;4.88;;;;;;;23.37;57.23;99486.59;10537880;28;20040;-70
2022/08/01 22:41:46;;;;;;;7.30;4.65;;;;;;;23.78;59.07;99563.28;10537974;28;20043;-70
2022/08/01 22:47:05;;;;;;;10.32;4.63;;;;;;;23.25;59.53;99478.75;10537317;28;20052;-71
2022/08/01 22:52:12;;;;;;;8.73;4.20;;;;;;;23.53;59.98;99553.22;10537736;28;20448;-71
2022/08/01 22:57:39;;;;;;;6.53;4.28;;;;;;;23.13;60.61;99489.84;10537629;28;20044;-71
2022/08/01 23:02:45;;;;;;;9.57;3.67;;;;;;;23.45;61.10;99580.88;10536775;28;20028;-71
2022/08/01 23:07:52;;;;;;;6.13;3.72;;;;;;;23.33;61.50;99572.22;10537042;28;20052;-71
2022/08/01 23:12:54;;;;;;;9.88;4.07;;;;;;;23.30;61.21;99594.44;10526442;28;20056;-71
2022/08/01 23:17:56;;;;;;;6.28;4.25;;;;;;;23.24;61.19;99580.91;10545057;28;20097;-71
2022/08/01 23:22:59;;;;;;;8.00;3.90;;;;;;;23.02;61.23;99559.47;10545591;28;20131;-71
2022/08/01 23:28:00;;;;;;;8.82;4.07;;;;;;;23.16;61.33;99584.13;10545993;28;20044;-71